createdAt,value
2024-01-15T00:02:09.987Z,16.27
2024-01-15T00:04:41.395Z,13.33
2024-01-15T00:07:09.329Z,16.73
2024-01-15T00:09:37.006Z,14.97
2024-01-15T00:12:04.757Z,14.50
2024-01-15T00:14:32.375Z,16.20
2024-01-15T00:16:59.756Z,17.43
2024-01-15T00:19:28.487Z,16.23
2024-01-15T00:21:56.406Z,16.80
2024-01-15T00:24:24.184Z,15.33
2024-01-15T00:26:51.813Z,15.27
2024-01-15T00:29:19.633Z,16.50
2024-01-15T00:31:47.158Z,17.33
2024-01-15T00:34:14.745Z,15.00
2024-01-15T00:36:42.637Z,16.30
2024-01-15T00:39:12.062Z,16.13
2024-01-15T00:41:39.678Z,16.43
2024-01-15T00:44:08.296Z,18.97
2024-01-15T00:46:45.399Z,18.07
2024-01-15T00:49:13.893Z,16.93
2024-01-15T00:51:41.664Z,18.13
2024-01-15T00:54:09.601Z,17.13
2024-01-15T00:56:37.892Z,15.33
2024-01-15T00:59:05.476Z,17.67
2024-01-15T01:01:33.230Z,17.03
2024-01-15T01:04:00.871Z,17.10
2024-01-15T01:06:29.687Z,17.03
2024-01-15T01:08:58.024Z,16.83
2024-01-15T01:11:25.541Z,18.83
2024-01-15T01:13:53.259Z,18.60
2024-01-15T01:16:20.659Z,17.77
2024-01-15T01:18:48.310Z,18.40
2024-01-15T01:21:16.114Z,17.27
2024-01-15T01:23:43.550Z,18.53
2024-01-15T01:26:11.257Z,18.60
2024-01-15T01:28:39.380Z,18.47
2024-01-15T01:31:06.932Z,19.03
2024-01-15T01:33:34.480Z,18.17
2024-01-15T01:36:02.100Z,18.60
2024-01-15T01:38:29.569Z,19.57
2024-01-15T01:40:57.072Z,17.70
2024-01-15T01:43:24.610Z,17.55
2024-01-15T01:45:52.238Z,18.80
2024-01-15T01:48:23.003Z,19.40
2024-01-15T01:50:51.027Z,17.00
2024-01-15T01:53:18.603Z,18.80
2024-01-15T01:55:47.126Z,18.53
2024-01-15T01:58:16.433Z,19.40
2024-01-15T02:00:44.570Z,19.53
2024-01-15T02:03:12.208Z,19.80
2024-01-15T02:05:41.056Z,20.03
2024-01-15T02:08:09.460Z,18.93
2024-01-15T02:10:37.046Z,19.10
2024-01-15T02:13:04.869Z,20.25
2024-01-15T02:15:33.102Z,19.87
2024-01-15T02:18:01.714Z,23.17
2024-01-15T02:20:29.275Z,18.85
2024-01-15T02:23:16.631Z,19.98
2024-01-15T02:25:48.227Z,21.23
2024-01-15T02:28:17.198Z,19.83
2024-01-15T02:30:44.935Z,20.77
2024-01-15T02:33:12.931Z,20.42
2024-01-15T02:35:41.008Z,19.13
2024-01-15T02:38:08.790Z,18.90
2024-01-15T02:40:36.548Z,17.77
2024-01-15T02:43:04.129Z,18.10
2024-01-15T02:45:31.782Z,20.05
2024-01-15T02:47:59.315Z,21.73
2024-01-15T02:50:26.899Z,20.40
2024-01-15T02:52:54.409Z,18.75
2024-01-15T02:55:21.892Z,19.02
2024-01-15T02:57:49.460Z,22.52
2024-01-15T03:00:17.130Z,22.20
2024-01-15T03:02:48.463Z,20.73
2024-01-15T03:05:16.606Z,19.05
2024-01-15T03:07:44.745Z,21.40
2024-01-15T03:10:12.382Z,21.90
2024-01-15T03:12:39.958Z,21.13
2024-01-15T03:15:07.655Z,20.00
2024-01-15T03:17:35.170Z,19.83
2024-01-15T03:20:03.031Z,20.73
2024-01-15T03:22:31.137Z,22.13
2024-01-15T03:24:59.103Z,22.65
2024-01-15T03:27:27.416Z,20.35
2024-01-15T03:29:55.007Z,21.80
2024-01-15T03:32:22.484Z,21.25
2024-01-15T03:34:50.220Z,22.80
2024-01-15T03:37:17.698Z,23.00
2024-01-15T03:39:45.535Z,22.50
2024-01-15T03:42:13.479Z,21.58
2024-01-15T03:44:41.215Z,22.55
2024-01-15T03:47:08.649Z,22.80
2024-01-15T03:49:36.405Z,23.23
2024-01-15T03:52:04.168Z,23.57
2024-01-15T03:54:31.578Z,21.15
2024-01-15T03:56:59.126Z,24.58
2024-01-15T03:59:26.841Z,23.02
2024-01-15T04:01:54.286Z,24.05
2024-01-15T04:04:21.882Z,21.10
2024-01-15T04:06:49.707Z,22.13
2024-01-15T04:09:17.617Z,22.73
2024-01-15T04:11:45.260Z,25.50
2024-01-15T04:14:12.763Z,24.85
2024-01-15T04:16:40.372Z,22.67
2024-01-15T04:19:08.464Z,23.42
2024-01-15T04:21:36.036Z,24.73
2024-01-15T04:24:03.559Z,22.30
2024-01-15T04:26:31.028Z,23.67
2024-01-15T04:29:00.154Z,24.80
2024-01-15T04:31:30.692Z,26.63
2024-01-15T04:33:58.401Z,25.00
2024-01-15T04:36:26.290Z,25.00
2024-01-15T04:38:53.787Z,25.20
2024-01-15T04:41:21.491Z,24.55
2024-01-15T04:43:49.067Z,25.58
2024-01-15T04:46:16.636Z,29.30
2024-01-15T04:48:44.332Z,27.10
2024-01-15T04:51:11.913Z,26.83
2024-01-15T04:53:39.529Z,26.27
2024-01-15T04:56:07.269Z,25.48
2024-01-15T04:58:34.926Z,24.50
2024-01-15T05:01:02.627Z,26.77
2024-01-15T05:03:31.083Z,23.90
2024-01-15T05:05:58.840Z,23.98
2024-01-15T05:08:26.360Z,29.58
2024-01-15T05:10:54.542Z,30.25
2024-01-15T05:13:22.052Z,30.13
2024-01-15T05:15:49.492Z,26.98
2024-01-15T05:18:17.443Z,29.70
2024-01-15T05:20:45.276Z,28.83
2024-01-15T05:23:12.773Z,27.13
2024-01-15T05:25:40.219Z,29.52
2024-01-15T05:28:08.086Z,27.02
2024-01-15T05:30:35.557Z,28.55
2024-01-15T05:33:04.184Z,26.73
2024-01-15T05:35:31.770Z,28.75
2024-01-15T05:37:59.358Z,29.25
2024-01-15T05:40:26.708Z,27.52
2024-01-15T05:42:54.216Z,30.58
2024-01-15T05:45:21.748Z,29.60
2024-01-15T05:47:49.659Z,29.85
2024-01-15T05:50:17.435Z,28.33
2024-01-15T05:52:44.969Z,29.48
2024-01-15T05:55:12.334Z,28.00
2024-01-15T05:57:40.624Z,30.08
2024-01-15T06:00:10.266Z,29.35
2024-01-15T06:02:39.586Z,28.52
2024-01-15T06:05:07.523Z,30.27
2024-01-15T06:07:36.126Z,29.58
2024-01-15T06:10:04.299Z,32.03
2024-01-15T06:12:33.622Z,28.73
2024-01-15T06:15:01.172Z,30.17
2024-01-15T06:17:29.036Z,30.10
2024-01-15T06:19:56.607Z,25.58
2024-01-15T06:22:24.010Z,28.60
2024-01-15T06:24:51.719Z,27.27
2024-01-15T06:27:19.230Z,24.63
2024-01-15T06:29:51.081Z,25.90
2024-01-15T06:32:19.071Z,27.40
2024-01-15T06:34:47.634Z,25.83
2024-01-15T06:37:15.149Z,24.65
2024-01-15T06:39:43.038Z,22.67
2024-01-15T06:42:10.575Z,27.35
2024-01-15T06:44:38.216Z,25.08
2024-01-15T06:47:07.122Z,25.67
2024-01-15T06:49:34.707Z,28.08
2024-01-15T06:52:02.408Z,25.95
2024-01-15T06:54:30.091Z,24.75
2024-01-15T06:56:57.668Z,26.15
2024-01-15T06:59:25.912Z,23.48
2024-01-15T07:01:53.480Z,25.00
2024-01-15T07:04:21.290Z,24.63
2024-01-15T07:06:49.690Z,24.90
2024-01-15T07:09:18.031Z,27.33
2024-01-15T07:11:46.709Z,24.98
2024-01-15T07:14:14.333Z,23.65
2024-01-15T07:16:43.173Z,24.90
2024-01-15T07:19:12.545Z,24.80
2024-01-15T07:21:41.409Z,25.52
2024-01-15T07:24:10.433Z,23.70
2024-01-15T07:26:38.014Z,23.40
2024-01-15T07:29:05.750Z,22.17
2024-01-15T07:31:34.196Z,23.73
2024-01-15T07:34:02.806Z,24.85
2024-01-15T07:36:30.502Z,21.33
2024-01-15T07:38:58.026Z,21.60
2024-01-15T07:41:25.729Z,20.63
2024-01-15T07:43:53.684Z,22.95
2024-01-15T07:46:21.635Z,23.80
2024-01-15T07:48:49.393Z,23.55
2024-01-15T07:51:17.522Z,25.45
2024-01-15T07:53:45.039Z,21.40
2024-01-15T07:56:12.542Z,21.05
2024-01-15T07:58:40.206Z,22.77
2024-01-15T08:01:08.169Z,24.83
2024-01-15T08:03:35.837Z,20.25
2024-01-15T08:06:03.374Z,23.10
2024-01-15T08:08:30.836Z,21.67
2024-01-15T08:10:58.725Z,23.13
2024-01-15T08:13:27.899Z,26.05
2024-01-15T08:15:55.357Z,23.88
2024-01-15T08:18:23.160Z,23.42
2024-01-15T08:20:52.789Z,21.95
2024-01-15T08:23:21.233Z,21.50
2024-01-15T08:25:49.080Z,23.30
2024-01-15T08:28:16.653Z,23.88
2024-01-15T08:30:44.263Z,22.90
2024-01-15T08:33:21.282Z,21.25
2024-01-15T08:35:51.120Z,22.02
2024-01-15T08:38:20.677Z,23.58
2024-01-15T08:40:48.533Z,23.55
2024-01-15T08:43:18.554Z,24.55
2024-01-15T08:45:46.622Z,24.98
2024-01-15T08:48:14.215Z,24.17
2024-01-15T08:50:41.782Z,20.70
2024-01-15T08:53:09.376Z,25.15
2024-01-15T08:55:36.961Z,23.13
2024-01-15T08:58:05.057Z,25.13
2024-01-15T09:00:32.711Z,19.70
2024-01-15T09:03:00.305Z,23.52
2024-01-15T09:05:27.998Z,23.88
2024-01-15T09:07:55.790Z,24.10
2024-01-15T09:10:23.462Z,23.90
2024-01-15T09:12:51.283Z,24.20
2024-01-15T09:15:19.383Z,19.83
2024-01-15T09:17:47.484Z,23.42
2024-01-15T09:20:15.211Z,24.08
2024-01-15T09:22:43.877Z,24.73
2024-01-15T09:25:11.665Z,24.10
2024-01-15T09:27:39.642Z,20.58
2024-01-15T09:30:07.778Z,21.30
2024-01-15T09:32:35.693Z,21.02
2024-01-15T09:35:03.451Z,22.40
2024-01-15T09:37:42.092Z,21.88
2024-01-15T09:40:18.518Z,21.55
2024-01-15T09:42:47.695Z,20.48
2024-01-15T09:45:15.644Z,20.00
2024-01-15T09:47:46.085Z,19.75
2024-01-15T09:50:16.332Z,21.85
2024-01-15T09:52:45.473Z,19.38
2024-01-15T09:55:13.396Z,20.35
2024-01-15T09:57:41.384Z,17.80
2024-01-15T10:00:12.477Z,20.73
2024-01-15T10:02:40.254Z,19.65
2024-01-15T10:05:07.906Z,21.20
2024-01-15T10:07:41.153Z,20.90
2024-01-15T10:12:40.435Z,22.63
2024-01-15T10:15:10.954Z,20.73
2024-01-15T10:17:39.940Z,20.35
2024-01-15T10:20:11.520Z,19.25
2024-01-15T10:22:43.293Z,20.90
2024-01-15T10:25:14.663Z,21.23
2024-01-15T10:27:43.151Z,20.00
2024-01-15T10:30:13.623Z,22.73
2024-01-15T10:32:42.530Z,20.45
2024-01-15T10:35:10.123Z,20.60
2024-01-15T10:37:37.765Z,19.23
2024-01-15T10:40:08.343Z,21.63
2024-01-15T10:42:36.027Z,19.60
2024-01-15T10:45:03.842Z,21.35
2024-01-15T10:47:32.131Z,19.20
2024-01-15T10:49:59.971Z,19.40
2024-01-15T10:52:28.498Z,20.65
2024-01-15T10:54:56.383Z,22.83
2024-01-15T10:57:24.930Z,21.45
2024-01-15T10:59:52.706Z,19.75
2024-01-15T11:02:20.316Z,19.88
2024-01-15T11:04:48.091Z,18.27
2024-01-15T11:07:15.959Z,19.40
2024-01-15T11:09:43.644Z,18.42
2024-01-15T11:12:12.291Z,21.23
2024-01-15T11:14:45.446Z,19.58
2024-01-15T11:17:14.458Z,20.75
2024-01-15T11:19:52.044Z,17.90
2024-01-15T11:22:34.806Z,17.90
2024-01-15T11:25:14.619Z,18.50
2024-01-15T11:27:45.449Z,19.50
2024-01-15T11:30:13.936Z,20.05
2024-01-15T11:32:44.888Z,15.32
2024-01-15T11:35:13.002Z,20.88
2024-01-15T11:37:53.449Z,18.58
2024-01-15T11:40:38.995Z,18.65
2024-01-15T11:43:07.830Z,20.52
2024-01-15T11:45:35.534Z,18.23
2024-01-15T11:48:17.615Z,19.50
2024-01-15T11:50:47.353Z,19.48
2024-01-15T11:53:35.585Z,15.57
2024-01-15T11:56:04.280Z,18.58
2024-01-15T11:58:31.955Z,17.52
2024-01-15T12:00:59.724Z,20.23
2024-01-15T12:03:27.650Z,18.55
2024-01-15T12:05:55.677Z,20.58
2024-01-15T12:08:27.942Z,18.42
2024-01-15T12:10:55.478Z,16.98
2024-01-15T12:13:22.997Z,20.38
2024-01-15T12:15:50.648Z,19.05
2024-01-15T12:18:19.779Z,16.45
2024-01-15T12:20:51.007Z,18.08
2024-01-15T12:23:19.738Z,20.58
2024-01-15T12:25:48.441Z,18.98
2024-01-15T12:28:16.106Z,19.17
2024-01-15T12:30:44.254Z,17.58
2024-01-15T12:33:11.917Z,18.88
2024-01-15T12:35:39.940Z,19.42
2024-01-15T12:38:07.607Z,19.50
2024-01-15T12:40:36.958Z,16.88
2024-01-15T12:43:06.861Z,17.48
2024-01-15T12:45:36.954Z,19.13
2024-01-15T12:48:05.654Z,20.88
2024-01-15T12:50:34.865Z,19.83
2024-01-15T12:53:02.862Z,18.77
2024-01-15T12:55:30.348Z,18.27
2024-01-15T12:57:57.960Z,19.20
2024-01-15T13:00:27.513Z,17.40
2024-01-15T13:02:56.307Z,20.80
2024-01-15T13:05:24.796Z,18.48
2024-01-15T13:07:53.416Z,20.23
2024-01-15T13:10:26.183Z,21.95
2024-01-15T13:12:54.625Z,20.88
2024-01-15T13:15:22.453Z,22.20
2024-01-15T13:17:50.694Z,21.00
2024-01-15T13:20:18.335Z,19.30
2024-01-15T13:22:46.932Z,20.58
2024-01-15T13:25:14.508Z,17.85
2024-01-15T13:27:43.487Z,20.45
2024-01-15T13:30:12.009Z,19.40
2024-01-15T13:32:41.033Z,20.98
2024-01-15T13:35:14.833Z,19.23
2024-01-15T13:37:44.876Z,22.83
2024-01-15T13:40:18.311Z,23.55
2024-01-15T13:42:47.180Z,22.27
2024-01-15T13:45:16.202Z,22.65
2024-01-15T13:47:45.167Z,21.27
2024-01-15T13:50:13.272Z,23.08
2024-01-15T13:52:43.162Z,18.75
2024-01-15T13:55:14.316Z,21.83
2024-01-15T13:57:41.983Z,21.33
2024-01-15T14:00:12.918Z,23.00
2024-01-15T14:02:43.115Z,22.42
2024-01-15T14:05:14.244Z,23.30
2024-01-15T14:07:42.359Z,20.65
2024-01-15T14:10:10.917Z,22.75
2024-01-15T14:12:38.797Z,24.48
2024-01-15T14:17:39.210Z,23.35
2024-01-15T14:20:10.677Z,23.30
2024-01-15T14:22:39.508Z,24.67
2024-01-15T14:25:07.733Z,23.77
2024-01-15T14:27:35.793Z,26.55
2024-01-15T14:30:04.504Z,26.20
2024-01-15T14:32:33.173Z,25.42
2024-01-15T14:35:01.615Z,25.42
2024-01-15T14:37:30.498Z,24.67
2024-01-15T14:40:26.247Z,24.98
2024-01-15T14:43:07.099Z,28.10
2024-01-15T14:45:35.097Z,24.33
2024-01-15T14:48:03.182Z,25.38
2024-01-15T14:50:31.901Z,25.65
2024-01-15T14:52:59.728Z,26.58
2024-01-15T14:55:27.972Z,27.38
2024-01-15T14:57:56.081Z,23.95
2024-01-15T15:00:24.826Z,24.35
2024-01-15T15:02:52.555Z,28.60
2024-01-15T15:05:20.222Z,25.67
2024-01-15T15:07:49.704Z,25.48
2024-01-15T15:10:18.366Z,26.08
2024-01-15T15:12:46.205Z,28.73
2024-01-15T15:15:18.611Z,27.58
2024-01-15T15:17:48.833Z,27.58
2024-01-15T15:20:17.403Z,27.17
2024-01-15T15:22:45.833Z,25.83
2024-01-15T15:25:15.018Z,25.42
2024-01-15T15:27:42.857Z,24.33
2024-01-15T15:30:16.974Z,24.23
2024-01-15T15:32:44.578Z,21.03
2024-01-15T15:35:12.416Z,21.80
2024-01-15T15:37:41.760Z,20.55
2024-01-15T15:40:16.576Z,23.80
2024-01-15T15:42:45.004Z,23.77
2024-01-15T15:45:13.981Z,22.20
2024-01-15T15:47:44.108Z,20.75
2024-01-15T15:50:11.898Z,22.77
2024-01-15T15:52:40.639Z,23.80
2024-01-15T15:55:09.362Z,23.42
2024-01-15T15:57:37.544Z,22.67
2024-01-15T16:00:07.853Z,24.33
2024-01-15T16:02:39.710Z,24.17
2024-01-15T16:05:11.298Z,22.98
2024-01-15T16:07:40.880Z,22.48
2024-01-15T16:10:11.865Z,25.27
2024-01-15T16:12:44.118Z,21.88
2024-01-15T16:15:24.254Z,39.45
2024-01-15T16:23:17.984Z,22.30
2024-01-15T16:23:32.438Z,25.45
2024-01-15T16:24:06.759Z,22.98
2024-01-15T16:26:27.687Z,24.27
2024-01-15T16:28:58.856Z,25.13
2024-01-15T16:31:31.985Z,24.75
2024-01-15T16:34:04.718Z,23.35
2024-01-15T16:36:37.217Z,22.63
2024-01-15T16:39:09.251Z,23.13
2024-01-15T16:41:38.663Z,25.02
2024-01-15T16:44:06.567Z,25.73
2024-01-15T16:46:34.142Z,25.25
2024-01-15T16:49:03.616Z,26.00
2024-01-15T16:51:34.584Z,25.00
2024-01-15T16:54:02.208Z,25.50
2024-01-15T16:56:30.308Z,28.23
2024-01-15T16:58:58.130Z,25.90
2024-01-15T17:01:26.073Z,27.40
2024-01-15T17:03:56.517Z,31.20
2024-01-15T17:06:26.777Z,28.35
2024-01-15T17:08:54.407Z,29.55
2024-01-15T17:11:23.377Z,29.20
2024-01-15T17:13:54.124Z,28.80
2024-01-15T17:16:24.372Z,29.17
2024-01-15T17:18:55.273Z,27.13
2024-01-15T17:21:25.012Z,26.67
2024-01-15T17:23:53.249Z,29.08
2024-01-15T17:26:24.588Z,30.17
2024-01-15T17:28:53.125Z,30.60
2024-01-15T17:31:22.184Z,31.25
2024-01-15T17:33:57.728Z,30.20
2024-01-15T17:36:32.662Z,30.40
2024-01-15T17:39:06.816Z,30.85
2024-01-15T17:41:38.183Z,29.85
2024-01-15T17:44:07.102Z,28.83
2024-01-15T17:46:36.104Z,32.22
2024-01-15T17:49:06.248Z,31.50
2024-01-15T17:51:46.000Z,31.77
2024-01-15T17:54:13.622Z,32.00
2024-01-15T17:56:41.442Z,30.77
2024-01-15T17:59:18.248Z,33.50
2024-01-15T18:01:47.816Z,32.58
2024-01-15T18:04:16.519Z,32.08
2024-01-15T18:06:44.222Z,32.22
2024-01-15T18:09:15.378Z,34.45
2024-01-15T18:11:42.997Z,31.23
2024-01-15T18:14:10.946Z,31.73
2024-01-15T18:16:50.329Z,30.40
2024-01-15T18:20:15.485Z,30.38
2024-01-15T18:22:50.768Z,33.53
2024-01-15T18:25:20.271Z,30.00
2024-01-15T18:27:52.026Z,35.95
2024-01-15T18:30:19.981Z,34.67
2024-01-15T18:32:47.817Z,31.00
2024-01-15T18:35:15.551Z,35.47
2024-01-15T18:37:45.458Z,34.33
2024-01-15T18:40:14.621Z,35.65
2024-01-15T18:42:42.608Z,34.75
2024-01-15T18:45:11.032Z,36.58
2024-01-15T18:47:41.564Z,32.47
2024-01-15T18:52:44.774Z,33.17
2024-01-15T18:55:15.395Z,32.17
2024-01-15T18:58:04.743Z,32.97
2024-01-15T19:00:43.774Z,31.13
2024-01-15T19:03:13.986Z,33.75
2024-01-15T19:05:45.814Z,33.42
2024-01-15T19:08:20.195Z,31.00
2024-01-15T19:11:05.815Z,31.20
2024-01-15T19:14:01.177Z,33.65
2024-01-15T19:25:35.648Z,32.83
2024-01-15T19:28:05.023Z,34.28
2024-01-15T19:30:33.192Z,32.13
2024-01-15T19:33:04.901Z,35.38
2024-01-15T19:35:41.032Z,32.97
2024-01-15T19:38:11.342Z,31.77
2024-01-15T19:40:39.875Z,31.50
2024-01-15T19:43:11.950Z,33.95
2024-01-15T19:45:39.620Z,31.33
2024-01-15T19:48:07.839Z,34.58
2024-01-15T19:50:38.378Z,35.28
2024-01-15T19:57:12.611Z,31.45
2024-01-15T19:59:49.497Z,33.45
2024-01-15T20:02:17.748Z,32.35
2024-01-15T20:04:48.683Z,34.13
2024-01-15T20:07:26.545Z,30.67
2024-01-15T20:09:54.911Z,31.85
2024-01-15T20:12:22.816Z,34.42
2024-01-15T20:14:51.097Z,33.55
2024-01-15T20:17:19.701Z,32.38
2024-01-15T20:19:50.544Z,35.88
2024-01-15T20:22:19.334Z,32.63
2024-01-15T20:24:48.406Z,32.55
2024-01-15T20:27:17.619Z,34.30
2024-01-15T20:29:51.888Z,33.92
2024-01-15T20:32:22.876Z,32.22
2024-01-15T20:34:55.217Z,33.28
2024-01-15T20:37:25.769Z,33.25
2024-01-15T20:39:54.858Z,33.33
2024-01-15T20:42:22.822Z,33.75
2024-01-15T20:44:52.786Z,34.30
2024-01-15T20:47:23.644Z,32.60
2024-01-15T20:49:51.646Z,34.35
2024-01-15T20:52:21.890Z,28.52
2024-01-15T20:55:12.128Z,33.40
2024-01-15T20:57:50.476Z,30.80
2024-01-15T21:00:21.548Z,32.20
2024-01-15T21:02:54.037Z,30.30
2024-01-15T21:05:21.862Z,30.83
2024-01-15T21:07:55.301Z,32.83
2024-01-15T21:10:23.796Z,33.67
2024-01-15T21:12:51.893Z,33.70
2024-01-15T21:15:19.824Z,32.92
2024-01-15T21:17:50.030Z,36.55
2024-01-15T21:20:25.432Z,32.20
2024-01-15T21:22:53.095Z,30.88
2024-01-15T21:25:21.981Z,35.08
2024-01-15T21:27:49.736Z,33.03
2024-01-15T21:30:18.354Z,32.30
2024-01-15T21:32:52.367Z,30.60
2024-01-15T21:35:20.965Z,32.95
2024-01-15T21:37:51.070Z,36.30
2024-01-15T21:40:24.246Z,31.70
2024-01-15T21:42:55.985Z,31.38
2024-01-15T21:45:28.105Z,33.00
2024-01-15T21:47:56.875Z,28.92
2024-01-15T21:50:32.456Z,31.77
2024-01-15T21:53:04.673Z,36.80
2024-01-15T21:55:32.470Z,30.65
2024-01-15T21:58:10.024Z,29.75
2024-01-15T22:00:37.870Z,31.30
2024-01-15T22:03:05.510Z,30.48
2024-01-15T22:05:37.139Z,31.05
2024-01-15T22:08:07.962Z,32.30
2024-01-15T22:10:49.839Z,30.85
2024-01-15T22:13:17.544Z,30.67
2024-01-15T22:15:45.351Z,33.15
2024-01-15T22:18:13.245Z,32.13
2024-01-15T22:20:41.505Z,31.15
2024-01-15T22:23:10.034Z,28.85
2024-01-15T22:25:40.078Z,31.80
2024-01-15T22:28:08.342Z,30.00
2024-01-15T22:30:37.594Z,29.60
2024-01-15T22:33:14.764Z,28.85
2024-01-15T22:35:53.122Z,29.95
2024-01-15T22:39:07.362Z,26.95
2024-01-15T22:41:35.314Z,29.05
2024-01-15T22:44:07.084Z,25.20
2024-01-15T22:46:34.885Z,27.55
2024-01-15T22:49:02.920Z,28.73
2024-01-15T22:51:30.956Z,28.40
2024-01-15T22:54:02.355Z,26.77
2024-01-15T22:56:33.400Z,22.73
2024-01-15T22:59:05.366Z,24.73
2024-01-15T23:01:35.714Z,24.80
2024-01-15T23:04:03.622Z,25.77
2024-01-15T23:06:36.760Z,24.52
2024-01-15T23:09:04.530Z,26.95
2024-01-15T23:11:32.415Z,24.85
2024-01-15T23:14:00.091Z,23.35
2024-01-15T23:16:27.530Z,22.08
2024-01-15T23:18:55.142Z,24.05
2024-01-15T23:21:22.773Z,24.63
2024-01-15T23:23:50.341Z,21.90
2024-01-15T23:26:19.005Z,23.63
2024-01-15T23:28:48.773Z,22.73
2024-01-15T23:31:16.218Z,21.10
2024-01-15T23:33:43.777Z,23.42
2024-01-15T23:36:11.617Z,23.85
2024-01-15T23:38:39.776Z,22.42
2024-01-15T23:41:07.949Z,21.98
2024-01-15T23:43:36.138Z,19.45
2024-01-15T23:46:10.593Z,21.05
2024-01-15T23:48:42.802Z,20.13
2024-01-15T23:51:10.678Z,20.95
2024-01-15T23:53:38.417Z,17.55
2024-01-15T23:56:06.096Z,18.70
2024-01-15T23:58:33.660Z,18.52
